createdAt,value
2023-05-10T00:00:07.542Z,54.7414
2023-05-10T00:01:09.373Z,54.6261
2023-05-10T00:02:11.260Z,54.5833
2023-05-10T00:03:13.082Z,54.5908
2023-05-10T00:04:15.021Z,54.4915
2023-05-10T00:05:16.714Z,54.4518
2023-05-10T00:06:18.543Z,54.3723
2023-05-10T00:07:20.356Z,54.3175
2023-05-10T00:08:22.200Z,54.3139
2023-05-10T00:09:24.060Z,54.2759
2023-05-10T00:10:25.855Z,54.1666
2023-05-10T00:11:27.715Z,54.1087
2023-05-10T00:12:29.546Z,54.0742
2023-05-10T00:13:31.439Z,54.0413
2023-05-10T00:14:33.274Z,54.0054
2023-05-10T00:15:35.044Z,53.9304
2023-05-10T00:16:36.925Z,53.8836
2023-05-10T00:17:38.769Z,53.9033
2023-05-10T00:18:40.546Z,53.9288
2023-05-10T00:19:42.374Z,54.0009
2023-05-10T00:20:44.212Z,54.0187
2023-05-10T00:21:46.050Z,53.9740
2023-05-10T00:22:47.886Z,53.9803
2023-05-10T00:23:49.722Z,53.9928
2023-05-10T00:24:51.547Z,54.0533
2023-05-10T00:25:53.399Z,54.0408
2023-05-10T00:26:55.236Z,53.9595
2023-05-10T00:27:57.052Z,53.8539
2023-05-10T00:28:58.901Z,53.8619
2023-05-10T00:30:00.725Z,53.8647
2023-05-10T00:31:02.568Z,53.8856
2023-05-10T00:32:04.475Z,53.8442
2023-05-10T00:33:06.308Z,53.7845
2023-05-10T00:34:08.064Z,53.7154
2023-05-10T00:35:09.919Z,53.7054
2023-05-10T00:36:11.788Z,53.7270
2023-05-10T00:37:13.601Z,53.7690
2023-05-10T00:38:15.417Z,53.7442
2023-05-10T00:39:17.267Z,53.7717
2023-05-10T00:40:19.232Z,53.7648
2023-05-10T00:41:20.942Z,53.7755
2023-05-10T00:42:22.763Z,53.7525
2023-05-10T00:43:24.592Z,53.7247
2023-05-10T00:44:26.422Z,53.7243
2023-05-10T00:45:28.282Z,53.7254
2023-05-10T00:46:30.192Z,53.7439
2023-05-10T00:47:31.964Z,53.7721
2023-05-10T00:48:33.786Z,53.7118
2023-05-10T00:49:35.611Z,53.7092
2023-05-10T00:50:37.462Z,53.6872
2023-05-10T00:51:39.268Z,53.6944
2023-05-10T00:52:41.091Z,53.7011
2023-05-10T00:53:42.942Z,53.7104
2023-05-10T00:54:44.762Z,53.7456
2023-05-10T00:55:46.589Z,53.7717
2023-05-10T00:56:48.445Z,53.8237
2023-05-10T00:57:50.250Z,53.8389
2023-05-10T00:58:52.098Z,53.8514
2023-05-10T00:59:53.930Z,53.8943
2023-05-10T01:00:55.762Z,53.9173
2023-05-10T01:01:57.612Z,53.8645
2023-05-10T01:02:59.514Z,53.8751
2023-05-10T01:04:01.257Z,53.8832
2023-05-10T01:05:03.178Z,53.9118
2023-05-10T01:06:04.932Z,53.9918
2023-05-10T01:07:06.762Z,54.0379
2023-05-10T01:08:08.636Z,54.1187
2023-05-10T01:09:10.437Z,54.1983
2023-05-10T01:10:12.283Z,54.2077
2023-05-10T01:11:14.118Z,54.1877
2023-05-10T01:12:16.012Z,54.1858
2023-05-10T01:13:17.807Z,54.1647
2023-05-10T01:14:19.608Z,54.2067
2023-05-10T01:15:21.457Z,54.1341
2023-05-10T01:16:23.368Z,54.0216
2023-05-10T01:17:25.121Z,53.9533
2023-05-10T01:18:26.944Z,53.8829
2023-05-10T01:19:28.798Z,53.8141
2023-05-10T01:20:30.644Z,53.8903
2023-05-10T01:21:32.464Z,53.9249
2023-05-10T01:22:34.310Z,53.9474
2023-05-10T01:23:36.139Z,53.9193
2023-05-10T01:24:37.956Z,53.9190
2023-05-10T01:25:39.796Z,53.9374
2023-05-10T01:26:41.652Z,53.9487
2023-05-10T01:27:43.481Z,53.9753
2023-05-10T01:28:45.319Z,53.9165
2023-05-10T01:29:47.140Z,53.8445
2023-05-10T01:30:48.983Z,53.8150
2023-05-10T01:31:50.892Z,53.8210
2023-05-10T01:32:52.731Z,53.8928
2023-05-10T01:33:54.508Z,53.8466
2023-05-10T01:34:56.325Z,53.9060
2023-05-10T01:35:58.166Z,53.8773
2023-05-10T01:37:00.039Z,53.7903
2023-05-10T01:38:01.850Z,53.7561
2023-05-10T01:39:03.706Z,53.8186
2023-05-10T01:40:05.526Z,53.8432
2023-05-10T01:41:07.356Z,53.9197
2023-05-10T01:42:09.197Z,54.0085
2023-05-10T01:43:11.039Z,53.9842
2023-05-10T01:44:12.864Z,53.9710
2023-05-10T01:45:14.727Z,53.9798
2023-05-10T01:46:16.593Z,53.9314
2023-05-10T01:47:18.387Z,53.9129
2023-05-10T01:48:20.211Z,53.9309
2023-05-10T01:49:22.051Z,53.9382
2023-05-10T01:50:23.890Z,53.9216
2023-05-10T01:51:25.766Z,53.9041
2023-05-10T01:52:27.567Z,53.9409
2023-05-10T01:53:29.396Z,53.9065
2023-05-10T01:54:31.244Z,53.8839
2023-05-10T01:55:33.079Z,53.9381
2023-05-10T01:56:34.898Z,53.9301
2023-05-10T01:57:36.812Z,53.9257
2023-05-10T01:58:38.579Z,53.8504
2023-05-10T01:59:40.419Z,53.8269
2023-05-10T02:00:42.285Z,53.7811
2023-05-10T02:01:44.077Z,53.7858
2023-05-10T02:02:46.026Z,53.7616
2023-05-10T02:03:47.810Z,53.7342
2023-05-10T02:04:49.584Z,53.7761
2023-05-10T02:05:59.055Z,53.8152
2023-05-10T02:06:53.280Z,53.7821
2023-05-10T02:07:55.100Z,53.7841
2023-05-10T02:08:56.931Z,53.7574
2023-05-10T02:09:58.769Z,53.8092
2023-05-10T02:11:00.595Z,53.8634
2023-05-10T02:12:02.425Z,53.9903
2023-05-10T02:13:04.381Z,54.0435
2023-05-10T02:14:06.117Z,54.0642
2023-05-10T02:15:07.949Z,54.0814
2023-05-10T02:16:09.841Z,54.0362
2023-05-10T02:17:11.608Z,54.0590
2023-05-10T02:18:13.456Z,54.0570
2023-05-10T02:19:15.292Z,54.0514
2023-05-10T02:20:17.469Z,54.0262
2023-05-10T02:21:19.020Z,54.0489
2023-05-10T02:22:20.873Z,54.0698
2023-05-10T02:23:22.712Z,54.1349
2023-05-10T02:24:24.507Z,54.1141
2023-05-10T02:25:26.350Z,54.0948
2023-05-10T02:26:28.191Z,54.0862
2023-05-10T02:27:30.041Z,54.0889
2023-05-10T02:28:31.867Z,54.0872
2023-05-10T02:29:33.678Z,54.1149
2023-05-10T02:30:35.512Z,54.1297
2023-05-10T02:31:37.386Z,54.1382
2023-05-10T02:32:39.217Z,54.1503
2023-05-10T02:33:41.018Z,54.2592
2023-05-10T02:34:42.844Z,54.2709
2023-05-10T02:35:44.695Z,54.2743
2023-05-10T02:36:46.526Z,54.2067
2023-05-10T02:37:48.348Z,54.1564
2023-05-10T02:38:50.194Z,54.1787
2023-05-10T02:39:52.027Z,54.2257
2023-05-10T02:40:53.867Z,54.1808
2023-05-10T02:41:55.703Z,54.1487
2023-05-10T02:42:57.540Z,54.1139
2023-05-10T02:43:59.373Z,54.1106
2023-05-10T02:45:01.225Z,54.1159
2023-05-10T02:46:03.063Z,54.0925
2023-05-10T02:47:04.865Z,54.1135
2023-05-10T02:48:06.736Z,54.1556
2023-05-10T02:49:08.550Z,54.1511
2023-05-10T02:50:10.376Z,54.0958
2023-05-10T02:51:12.215Z,54.0499
2023-05-10T02:52:14.051Z,54.1053
2023-05-10T02:53:15.880Z,54.1018
2023-05-10T02:54:17.741Z,54.1009
2023-05-10T02:55:19.563Z,54.1371
2023-05-10T02:56:21.405Z,54.0801
2023-05-10T02:57:23.223Z,54.1201
2023-05-10T02:58:25.079Z,54.1310
2023-05-10T02:59:26.911Z,54.1746
2023-05-10T03:00:28.746Z,54.1780
2023-05-10T03:01:30.604Z,54.1559
2023-05-10T03:02:32.533Z,54.1813
2023-05-10T03:03:34.243Z,54.1345
2023-05-10T03:04:36.129Z,54.1195
2023-05-10T03:05:37.939Z,54.1435
2023-05-10T03:06:39.788Z,54.1435
2023-05-10T03:07:41.606Z,54.1311
2023-05-10T03:08:43.446Z,54.1679
2023-05-10T03:09:45.290Z,54.1848
2023-05-10T03:10:47.124Z,54.1820
2023-05-10T03:11:48.944Z,54.1005
2023-05-10T03:12:50.807Z,54.1107
2023-05-10T03:13:52.636Z,54.1865
2023-05-10T03:14:54.489Z,54.1414
2023-05-10T03:15:56.346Z,54.0994
2023-05-10T03:16:58.136Z,54.0970
2023-05-10T03:18:00.014Z,54.0760
2023-05-10T03:19:01.827Z,54.0505
2023-05-10T03:20:03.669Z,54.0784
2023-05-10T03:21:05.497Z,54.0688
2023-05-10T03:22:07.333Z,54.1142
2023-05-10T03:23:09.164Z,54.1687
2023-05-10T03:24:11.009Z,54.2162
2023-05-10T03:25:12.858Z,54.2230
2023-05-10T03:26:14.684Z,54.1507
2023-05-10T03:27:16.650Z,54.1362
2023-05-10T03:28:18.370Z,54.1916
2023-05-10T03:29:20.195Z,54.1782
2023-05-10T03:30:22.033Z,54.1290
2023-05-10T03:31:23.930Z,54.0861
2023-05-10T03:32:25.750Z,54.2308
2023-05-10T03:33:27.521Z,54.2742
2023-05-10T03:34:29.367Z,54.3754
2023-05-10T03:35:31.201Z,54.3672
2023-05-10T03:36:33.047Z,54.3290
2023-05-10T03:37:34.880Z,54.3090
2023-05-10T03:38:36.696Z,54.2457
2023-05-10T03:39:38.542Z,54.2003
2023-05-10T03:40:40.365Z,54.2139
2023-05-10T03:41:42.206Z,54.2024
2023-05-10T03:42:44.037Z,54.1631
2023-05-10T03:43:45.875Z,54.1194
2023-05-10T03:44:47.741Z,54.0899
2023-05-10T03:45:49.579Z,54.1127
2023-05-10T03:46:51.420Z,54.1604
2023-05-10T03:47:53.256Z,54.1955
2023-05-10T03:48:55.070Z,54.1222
2023-05-10T03:49:56.911Z,54.0791
2023-05-10T03:50:58.732Z,54.0901
2023-05-10T03:52:00.588Z,54.0644
2023-05-10T03:53:02.418Z,54.0253
2023-05-10T03:54:04.271Z,54.1225
2023-05-10T03:55:06.088Z,54.1972
2023-05-10T03:56:07.923Z,54.2260
2023-05-10T03:57:09.758Z,54.1518
2023-05-10T03:58:11.592Z,54.0787
2023-05-10T03:59:13.422Z,54.0698
2023-05-10T04:00:15.630Z,54.0548
2023-05-10T04:01:17.103Z,54.0072
2023-05-10T04:02:18.960Z,53.9937
2023-05-10T04:03:20.830Z,53.9890
2023-05-10T04:04:22.605Z,53.9999
2023-05-10T04:05:24.434Z,53.9686
2023-05-10T04:06:26.400Z,53.9827
2023-05-10T04:07:28.110Z,54.0092
2023-05-10T04:08:29.972Z,54.0039
2023-05-10T04:09:31.764Z,54.0134
2023-05-10T04:10:33.611Z,54.0649
2023-05-10T04:11:35.455Z,54.1051
2023-05-10T04:12:37.270Z,54.0850
2023-05-10T04:13:39.244Z,54.1280
2023-05-10T04:14:40.951Z,54.1492
2023-05-10T04:15:42.780Z,54.1375
2023-05-10T04:16:44.678Z,54.0928
2023-05-10T04:17:46.522Z,54.0551
2023-05-10T04:18:48.289Z,54.0064
2023-05-10T04:19:50.139Z,54.0376
2023-05-10T04:20:51.977Z,54.0121
2023-05-10T04:21:53.891Z,53.9957
2023-05-10T04:22:55.643Z,53.9885
2023-05-10T04:23:57.481Z,53.9814
2023-05-10T04:24:59.315Z,53.9506
2023-05-10T04:26:01.168Z,53.9249
2023-05-10T04:27:03.000Z,53.9213
2023-05-10T04:28:04.814Z,53.9533
2023-05-10T04:29:06.648Z,53.8755
2023-05-10T04:30:08.492Z,53.7830
2023-05-10T04:31:10.360Z,53.7850
2023-05-10T04:32:12.164Z,53.8294
2023-05-10T04:33:14.034Z,53.8815
2023-05-10T04:34:15.830Z,53.8744
2023-05-10T04:35:17.680Z,53.8659
2023-05-10T04:36:19.510Z,53.8040
2023-05-10T04:37:21.342Z,53.8314
2023-05-10T04:38:23.178Z,53.8800
2023-05-10T04:39:25.024Z,53.8372
2023-05-10T04:40:26.859Z,53.9082
2023-05-10T04:41:28.689Z,53.8809
2023-05-10T04:42:30.539Z,53.8514
2023-05-10T04:43:32.382Z,53.8521
2023-05-10T04:44:34.201Z,53.7898
2023-05-10T04:45:36.050Z,53.8010
2023-05-10T04:46:37.966Z,53.8168
2023-05-10T04:47:39.820Z,53.7690
2023-05-10T04:48:41.571Z,53.7358
2023-05-10T04:49:43.416Z,53.6653
2023-05-10T04:50:45.244Z,53.6761
2023-05-10T04:51:47.082Z,53.6572
2023-05-10T04:52:48.907Z,53.6742
2023-05-10T04:53:57.820Z,53.7187
2023-05-10T04:54:53.583Z,53.6729
2023-05-10T04:55:54.431Z,53.6364
2023-05-10T04:56:56.256Z,53.5798
2023-05-10T04:57:58.095Z,53.5625
2023-05-10T04:58:59.935Z,53.5083
2023-05-10T05:00:01.766Z,53.4851
2023-05-10T05:01:03.585Z,53.5202
2023-05-10T05:02:05.611Z,53.4438
2023-05-10T05:03:07.289Z,53.3786
2023-05-10T05:04:09.088Z,53.3344
2023-05-10T05:05:10.920Z,53.3592
2023-05-10T05:06:12.777Z,53.3768
2023-05-10T05:07:14.608Z,53.3790
2023-05-10T05:08:16.436Z,53.3740
2023-05-10T05:09:18.285Z,53.3326
2023-05-10T05:10:20.260Z,53.2531
2023-05-10T05:11:21.945Z,53.1789
2023-05-10T05:12:23.771Z,53.1289
2023-05-10T05:13:25.713Z,53.0556
2023-05-10T05:14:27.465Z,52.9876
2023-05-10T05:15:29.304Z,52.9214
2023-05-10T05:16:31.219Z,52.8392
2023-05-10T05:17:33.010Z,52.8873
2023-05-10T05:18:34.796Z,52.9417
2023-05-10T05:19:36.631Z,52.9853
2023-05-10T05:20:38.481Z,52.9421
2023-05-10T05:21:40.362Z,52.8802
2023-05-10T05:22:42.154Z,52.8845
2023-05-10T05:23:43.976Z,52.8515
2023-05-10T05:24:45.812Z,52.7691
2023-05-10T05:25:47.666Z,52.7689
2023-05-10T05:26:49.504Z,52.7575
2023-05-10T05:27:51.345Z,52.7690
2023-05-10T05:28:53.164Z,52.6825
2023-05-10T05:29:55.039Z,52.6367
2023-05-10T05:30:56.842Z,52.5993
2023-05-10T05:31:58.729Z,52.5001
2023-05-10T05:33:00.664Z,52.4401
2023-05-10T05:34:02.372Z,52.4058
2023-05-10T05:35:04.200Z,52.4553
2023-05-10T05:36:06.061Z,52.5395
2023-05-10T05:37:07.885Z,52.5412
2023-05-10T05:38:09.722Z,52.6821
2023-05-10T05:39:11.545Z,52.6652
2023-05-10T05:40:13.398Z,52.6391
2023-05-10T05:41:15.224Z,52.6135
2023-05-10T05:42:17.043Z,52.5981
2023-05-10T05:43:18.897Z,52.6218
2023-05-10T05:44:20.714Z,52.6378
2023-05-10T05:45:22.551Z,52.5846
2023-05-10T05:46:24.479Z,52.6137
2023-05-10T05:47:26.287Z,52.5853
2023-05-10T05:48:28.056Z,52.5374
2023-05-10T05:49:29.918Z,52.5462
2023-05-10T05:50:31.748Z,52.5550
2023-05-10T05:51:33.570Z,52.5568
2023-05-10T05:52:35.411Z,52.4793
2023-05-10T05:53:37.265Z,52.4875
2023-05-10T05:54:39.102Z,52.4415
2023-05-10T05:55:40.950Z,52.4392
2023-05-10T05:56:42.778Z,52.3963
2023-05-10T05:57:44.616Z,52.3756
2023-05-10T05:58:46.462Z,52.3618
2023-05-10T05:59:48.290Z,52.3790
2023-05-10T06:00:50.124Z,52.3738
2023-05-10T06:01:51.962Z,52.4136
2023-05-10T06:02:53.837Z,52.4146
2023-05-10T06:03:55.771Z,52.4438
2023-05-10T06:04:57.484Z,52.4137
2023-05-10T06:05:59.291Z,52.3841
2023-05-10T06:07:01.142Z,52.3541
2023-05-10T06:08:02.994Z,52.3683
2023-05-10T06:09:04.806Z,52.3456
2023-05-10T06:10:06.656Z,52.3974
2023-05-10T06:11:08.487Z,52.4105
2023-05-10T06:12:10.322Z,52.4180
2023-05-10T06:13:12.206Z,52.5128
2023-05-10T06:14:14.010Z,52.5803
2023-05-10T06:15:16.014Z,52.4651
2023-05-10T06:16:17.726Z,52.4242
2023-05-10T06:17:19.533Z,52.3710
2023-05-10T06:18:21.348Z,52.2993
2023-05-10T06:19:23.221Z,52.2839
2023-05-10T06:20:25.047Z,52.3051
2023-05-10T06:21:26.880Z,52.3543
2023-05-10T06:22:28.773Z,52.4591
2023-05-10T06:23:30.631Z,52.5163
2023-05-10T06:24:32.450Z,52.4900
2023-05-10T06:25:34.287Z,52.4767
2023-05-10T06:26:36.141Z,52.4267
2023-05-10T06:27:37.962Z,52.3732
2023-05-10T06:28:39.795Z,52.3754
2023-05-10T06:29:41.629Z,52.2948
2023-05-10T06:30:43.477Z,52.2224
2023-05-10T06:31:45.400Z,52.1400
2023-05-10T06:32:47.281Z,52.0721
2023-05-10T06:33:48.994Z,52.0569
2023-05-10T06:34:50.815Z,52.0933
2023-05-10T06:35:52.655Z,52.1797
2023-05-10T06:36:54.512Z,52.0703
2023-05-10T06:37:56.335Z,51.8683
2023-05-10T06:38:58.173Z,51.7487
2023-05-10T06:40:00.015Z,51.6367
2023-05-10T06:41:01.846Z,51.4971
2023-05-10T06:42:03.693Z,51.3705
2023-05-10T06:43:05.511Z,51.2117
2023-05-10T06:44:07.360Z,51.0938
2023-05-10T06:45:09.202Z,50.9877
2023-05-10T06:46:11.061Z,50.9031
2023-05-10T06:47:12.870Z,50.7970
2023-05-10T06:48:14.743Z,50.7544
2023-05-10T06:49:16.572Z,50.7244
2023-05-10T06:50:18.367Z,50.7410
2023-05-10T06:51:20.204Z,50.6739
2023-05-10T06:52:22.034Z,50.6423
2023-05-10T06:53:23.886Z,50.6192
2023-05-10T06:54:25.726Z,50.6530
2023-05-10T06:55:27.552Z,50.6404
2023-05-10T06:56:29.388Z,50.5832
2023-05-10T06:57:32.195Z,50.5788
2023-05-10T06:58:33.088Z,50.5470
2023-05-10T06:59:34.980Z,50.5866
2023-05-10T07:00:36.781Z,50.5498
2023-05-10T07:01:38.592Z,50.5396
2023-05-10T07:02:40.408Z,50.4980
2023-05-10T07:03:42.281Z,50.5017
2023-05-10T07:04:44.091Z,50.4878
2023-05-10T07:05:45.900Z,50.4552
2023-05-10T07:06:47.763Z,50.3349
2023-05-10T07:07:49.573Z,50.3966
2023-05-10T07:08:51.432Z,50.4195
2023-05-10T07:09:53.251Z,50.3837
2023-05-10T07:10:55.090Z,50.3574
2023-05-10T07:11:56.942Z,50.2412
2023-05-10T07:12:58.828Z,50.2446
2023-05-10T07:14:00.632Z,50.2036
2023-05-10T07:15:02.447Z,50.2309
2023-05-10T07:16:04.333Z,50.2269
2023-05-10T07:17:06.141Z,50.1829
2023-05-10T07:18:08.030Z,50.1732
2023-05-10T07:19:09.797Z,50.1390
2023-05-10T07:20:11.633Z,50.0799
2023-05-10T07:21:13.525Z,50.0826
2023-05-10T07:22:15.320Z,50.1605
2023-05-10T07:23:17.148Z,50.1966
2023-05-10T07:24:19.000Z,50.2182
2023-05-10T07:25:20.817Z,50.1680
2023-05-10T07:26:22.672Z,50.1988
2023-05-10T07:27:24.510Z,50.1995
2023-05-10T07:28:26.348Z,50.1393
2023-05-10T07:29:28.195Z,50.1069
2023-05-10T07:30:30.047Z,50.0985
2023-05-10T07:31:31.910Z,50.0994
2023-05-10T07:32:33.822Z,50.1015
2023-05-10T07:33:35.516Z,50.1110
2023-05-10T07:34:37.374Z,50.0763
2023-05-10T07:35:39.209Z,50.0684
2023-05-10T07:36:41.021Z,50.0357
2023-05-10T07:37:42.854Z,49.9925
2023-05-10T07:38:44.722Z,50.0335
2023-05-10T07:39:46.547Z,49.9289
2023-05-10T07:40:48.370Z,49.8091
2023-05-10T07:41:50.224Z,49.8072
2023-05-10T07:42:52.053Z,49.7753
2023-05-10T07:43:53.922Z,49.7239
2023-05-10T07:44:55.723Z,49.6672
2023-05-10T07:45:57.590Z,49.6492
2023-05-10T07:46:59.411Z,49.6607
2023-05-10T07:48:01.290Z,49.6879
2023-05-10T07:49:03.073Z,49.7391
2023-05-10T07:50:04.924Z,49.7507
2023-05-10T07:51:07.329Z,49.7617
2023-05-10T07:52:08.604Z,49.7699
2023-05-10T07:53:10.444Z,49.7698
2023-05-10T07:54:12.333Z,49.7871
2023-05-10T07:55:14.139Z,49.7874
2023-05-10T07:56:15.941Z,49.8192
2023-05-10T07:57:17.797Z,49.8142
2023-05-10T07:58:19.618Z,49.7820
2023-05-10T07:59:21.471Z,49.7917
2023-05-10T08:00:23.309Z,49.7703
2023-05-10T08:01:25.140Z,49.7705
2023-05-10T08:02:27.071Z,49.7588
2023-05-10T08:03:28.950Z,49.7525
2023-05-10T08:04:30.670Z,49.7251
2023-05-10T08:05:34.046Z,49.6906
2023-05-10T08:06:34.318Z,49.7975
2023-05-10T08:07:36.156Z,49.8465
2023-05-10T08:08:38.004Z,49.8062
2023-05-10T08:09:39.838Z,49.6974
2023-05-10T08:10:41.692Z,49.5402
2023-05-10T08:11:43.508Z,49.4719
2023-05-10T08:12:45.352Z,49.4186
2023-05-10T08:13:47.225Z,49.3355
2023-05-10T08:14:49.033Z,49.2210
2023-05-10T08:15:50.903Z,49.1596
2023-05-10T08:16:52.711Z,49.0491
2023-05-10T08:17:54.555Z,48.9574
2023-05-10T08:18:56.581Z,48.9144
2023-05-10T08:19:58.210Z,48.9250
2023-05-10T08:21:00.062Z,48.9635
2023-05-10T08:22:01.897Z,48.9475
2023-05-10T08:23:03.719Z,48.8622
2023-05-10T08:24:05.567Z,48.8037
2023-05-10T08:25:07.411Z,48.7974
2023-05-10T08:26:09.231Z,48.7689
2023-05-10T08:27:11.082Z,48.7460
2023-05-10T08:28:12.913Z,48.7032
2023-05-10T08:29:14.736Z,48.7111
2023-05-10T08:30:16.566Z,48.7577
2023-05-10T08:31:18.425Z,48.7977
2023-05-10T08:32:20.235Z,48.7746
2023-05-10T08:33:22.082Z,48.7531
2023-05-10T08:34:24.058Z,48.6942
2023-05-10T08:35:25.762Z,48.6438
2023-05-10T08:36:27.599Z,48.5703
2023-05-10T08:37:29.422Z,48.5427
2023-05-10T08:38:31.255Z,48.5377
2023-05-10T08:39:33.089Z,48.4328
2023-05-10T08:40:34.936Z,48.2817
2023-05-10T08:41:36.777Z,48.1614
2023-05-10T08:42:38.620Z,48.0972
2023-05-10T08:43:40.453Z,48.0353
2023-05-10T08:44:42.303Z,47.9526
2023-05-10T08:45:44.158Z,47.8796
2023-05-10T08:46:46.046Z,47.8246
2023-05-10T08:47:47.826Z,47.7545
2023-05-10T08:48:49.663Z,47.6776
2023-05-10T08:49:51.500Z,47.5900
2023-05-10T08:50:53.334Z,47.5683
2023-05-10T08:51:55.171Z,47.5692
2023-05-10T08:52:57.030Z,47.5467
2023-05-10T08:53:58.895Z,47.5315
2023-05-10T08:55:00.691Z,47.5345
2023-05-10T08:56:02.540Z,47.5913
2023-05-10T08:57:04.380Z,47.5520
2023-05-10T08:58:06.229Z,47.5224
2023-05-10T08:59:08.087Z,47.4832
2023-05-10T09:00:09.918Z,47.4048
2023-05-10T09:01:11.761Z,47.3745
2023-05-10T09:02:13.582Z,47.4250
2023-05-10T09:03:15.428Z,47.3754
2023-05-10T09:04:17.378Z,47.3425
2023-05-10T09:05:19.591Z,47.3913
2023-05-10T09:06:20.942Z,47.3689
2023-05-10T09:07:22.787Z,47.3096
2023-05-10T09:08:24.618Z,47.2668
2023-05-10T09:09:26.457Z,47.1972
2023-05-10T09:10:28.333Z,47.1358
2023-05-10T09:11:30.161Z,47.1302
2023-05-10T09:12:31.981Z,47.0998
2023-05-10T09:13:33.825Z,47.1251
2023-05-10T09:14:35.661Z,47.1348
2023-05-10T09:15:37.487Z,47.1590
2023-05-10T09:16:39.424Z,47.1723
2023-05-10T09:17:41.180Z,47.1363
2023-05-10T09:18:43.028Z,47.1302
2023-05-10T09:19:44.863Z,47.0316
2023-05-10T09:20:46.687Z,46.9786
2023-05-10T09:21:48.529Z,46.9027
2023-05-10T09:22:50.352Z,46.8089
2023-05-10T09:23:52.187Z,46.7435
2023-05-10T09:24:54.035Z,46.6899
2023-05-10T09:25:55.873Z,46.7250
2023-05-10T09:26:57.724Z,46.7540
2023-05-10T09:27:59.560Z,46.7866
2023-05-10T09:29:01.389Z,46.7676
2023-05-10T09:30:03.224Z,46.7486
2023-05-10T09:31:05.134Z,46.7130
2023-05-10T09:32:06.883Z,46.6996
2023-05-10T09:33:08.715Z,46.6856
2023-05-10T09:34:10.568Z,46.7460
2023-05-10T09:35:12.398Z,46.7664
2023-05-10T09:36:14.251Z,46.7513
2023-05-10T09:37:16.095Z,46.6768
2023-05-10T09:38:17.922Z,46.5665
2023-05-10T09:39:19.765Z,46.5766
2023-05-10T09:40:21.584Z,46.5553
2023-05-10T09:41:23.431Z,46.5588
2023-05-10T09:42:25.245Z,46.5820
2023-05-10T09:43:27.099Z,46.5627
2023-05-10T09:44:28.912Z,46.5324
2023-05-10T09:45:30.743Z,46.4786
2023-05-10T09:46:32.779Z,46.3769
2023-05-10T09:47:34.453Z,46.2942
2023-05-10T09:48:36.242Z,46.3019
2023-05-10T09:49:38.091Z,46.2712
2023-05-10T09:50:39.913Z,46.3102
2023-05-10T09:51:41.748Z,46.3425
2023-05-10T09:52:43.594Z,46.3176
2023-05-10T09:53:45.414Z,46.2094
2023-05-10T09:54:47.259Z,46.1150
2023-05-10T09:55:49.089Z,46.0959
2023-05-10T09:56:50.934Z,46.0757
2023-05-10T09:57:52.755Z,46.0653
2023-05-10T09:58:54.602Z,46.0294
2023-05-10T09:59:56.430Z,45.9581
2023-05-10T10:00:58.256Z,45.9550
2023-05-10T10:02:00.246Z,45.8684
2023-05-10T10:03:01.954Z,45.8637
2023-05-10T10:04:03.779Z,45.8565
2023-05-10T10:05:05.630Z,45.8435
2023-05-10T10:06:15.874Z,45.8255
2023-05-10T10:07:11.976Z,45.8355
2023-05-10T10:08:12.556Z,45.8250
2023-05-10T10:09:14.117Z,45.8649
2023-05-10T10:10:15.691Z,45.8646
2023-05-10T10:11:17.251Z,45.8306
2023-05-10T10:12:18.802Z,45.8068
2023-05-10T10:13:20.372Z,45.8432
2023-05-10T10:14:22.126Z,45.7572
2023-05-10T10:15:23.971Z,45.6948
2023-05-10T10:16:25.929Z,45.6071
2023-05-10T10:17:27.655Z,45.5341
2023-05-10T10:18:29.511Z,45.5259
2023-05-10T10:19:31.291Z,45.5100
2023-05-10T10:20:33.141Z,45.4695
2023-05-10T10:21:34.980Z,45.3867
2023-05-10T10:22:36.812Z,45.3110
2023-05-10T10:23:38.626Z,45.2552
2023-05-10T10:24:40.468Z,45.1961
2023-05-10T10:25:42.303Z,45.1819
2023-05-10T10:26:44.232Z,45.1751
2023-05-10T10:27:46.039Z,45.1302
2023-05-10T10:28:47.887Z,45.0871
2023-05-10T10:29:49.723Z,45.0412
2023-05-10T10:30:51.562Z,44.9927
2023-05-10T10:31:53.543Z,44.8945
2023-05-10T10:32:55.253Z,44.7942
2023-05-10T10:33:57.053Z,44.6973
2023-05-10T10:34:58.891Z,44.6289
2023-05-10T10:36:00.729Z,44.5851
2023-05-10T10:37:02.563Z,44.5597
2023-05-10T10:38:04.395Z,44.4784
2023-05-10T10:39:06.208Z,44.4334
2023-05-10T10:40:08.038Z,44.3938
2023-05-10T10:41:09.892Z,44.3905
2023-05-10T10:42:11.730Z,44.3477
2023-05-10T10:43:13.541Z,44.2689
2023-05-10T10:44:15.388Z,44.2348
2023-05-10T10:45:17.484Z,44.2202
2023-05-10T10:46:19.136Z,44.2324
2023-05-10T10:47:20.951Z,44.2096
2023-05-10T10:48:22.712Z,44.1997
2023-05-10T10:49:24.547Z,44.1662
2023-05-10T10:50:26.380Z,44.1261
2023-05-10T10:51:28.223Z,44.1270
2023-05-10T10:52:30.058Z,44.0745
2023-05-10T10:53:32.018Z,44.0488
2023-05-10T10:54:33.747Z,44.0937
2023-05-10T10:55:35.553Z,44.1059
2023-05-10T10:56:37.401Z,44.1454
2023-05-10T10:57:39.251Z,44.1811
2023-05-10T10:58:41.074Z,44.1679
2023-05-10T10:59:42.890Z,44.1407
2023-05-10T11:00:44.787Z,44.0770
2023-05-10T11:01:46.576Z,43.9899
2023-05-10T11:02:48.439Z,43.9293
2023-05-10T11:03:50.248Z,43.9067
2023-05-10T11:04:52.077Z,43.9345
2023-05-10T11:05:53.917Z,43.9607
2023-05-10T11:06:55.763Z,43.9806
2023-05-10T11:07:57.599Z,43.9964
2023-05-10T11:08:59.426Z,43.9243
2023-05-10T11:10:01.274Z,43.9235
2023-05-10T11:11:03.151Z,43.8984
2023-05-10T11:12:04.955Z,43.8651
2023-05-10T11:13:06.805Z,43.8762
2023-05-10T11:14:08.644Z,43.8522
2023-05-10T11:15:10.476Z,43.7664
2023-05-10T11:16:12.332Z,43.7339
2023-05-10T11:17:14.181Z,43.6423
2023-05-10T11:18:16.014Z,43.5676
2023-05-10T11:19:17.847Z,43.4706
2023-05-10T11:20:19.864Z,43.3703
2023-05-10T11:21:21.505Z,43.3534
2023-05-10T11:22:23.346Z,43.3395
2023-05-10T11:23:25.182Z,43.2961
2023-05-10T11:24:27.033Z,43.3192
2023-05-10T11:25:28.869Z,43.3391
2023-05-10T11:26:30.712Z,43.3667
2023-05-10T11:27:32.553Z,43.4304
2023-05-10T11:28:34.381Z,43.4400
2023-05-10T11:29:36.237Z,43.4205
2023-05-10T11:30:38.089Z,43.4201
2023-05-10T11:31:39.930Z,43.3814
2023-05-10T11:32:41.784Z,43.3490
2023-05-10T11:33:43.611Z,43.3120
2023-05-10T11:34:45.449Z,43.2888
2023-05-10T11:35:47.289Z,43.2515
2023-05-10T11:36:49.134Z,43.2617
2023-05-10T11:37:50.984Z,43.2327
2023-05-10T11:38:52.809Z,43.2596
2023-05-10T11:39:54.651Z,43.2512
2023-05-10T11:40:56.488Z,43.2690
2023-05-10T11:41:58.329Z,43.2879
2023-05-10T11:43:00.165Z,43.3622
2023-05-10T11:44:02.028Z,43.4111
2023-05-10T11:45:03.864Z,43.4122
2023-05-10T11:46:05.724Z,43.4129
2023-05-10T11:47:07.528Z,43.4370
2023-05-10T11:48:09.419Z,43.4874
2023-05-10T11:49:11.208Z,43.4628
2023-05-10T11:50:13.034Z,43.4007
2023-05-10T11:51:14.900Z,43.3644
2023-05-10T11:52:16.713Z,43.3440
2023-05-10T11:53:18.568Z,43.2546
2023-05-10T11:54:20.401Z,43.2028
2023-05-10T11:55:22.239Z,43.0889
2023-05-10T11:56:24.073Z,43.0472
2023-05-10T11:57:25.931Z,43.0454
2023-05-10T11:58:27.755Z,42.9963
2023-05-10T11:59:29.608Z,42.9197
2023-05-10T12:00:31.442Z,42.8193
2023-05-10T12:01:33.283Z,42.6913
2023-05-10T12:02:35.245Z,42.5494
2023-05-10T12:03:37.054Z,42.4174
2023-05-10T12:04:38.857Z,42.2552
2023-05-10T12:05:42.897Z,42.1489
2023-05-10T12:06:42.468Z,42.1959
2023-05-10T12:07:44.306Z,42.1835
2023-05-10T12:08:46.164Z,42.0975
2023-05-10T12:09:47.993Z,42.0682
2023-05-10T12:10:49.832Z,42.0384
2023-05-10T12:11:51.653Z,41.9907
2023-05-10T12:12:53.509Z,41.9539
2023-05-10T12:13:55.346Z,41.8792
2023-05-10T12:14:57.168Z,41.8164
2023-05-10T12:15:59.071Z,41.7637
2023-05-10T12:17:00.856Z,41.7340
2023-05-10T12:18:02.733Z,41.7587
2023-05-10T12:19:04.696Z,41.7358
2023-05-10T12:20:06.360Z,41.6459
2023-05-10T12:21:08.205Z,41.6181
2023-05-10T12:22:10.039Z,41.5730
2023-05-10T12:23:11.880Z,41.5115
2023-05-10T12:24:13.717Z,41.4992
2023-05-10T12:25:15.551Z,41.4320
2023-05-10T12:26:17.388Z,41.3797
2023-05-10T12:27:19.232Z,41.3311